sensor_id;sensor_type;location;lat;lon;timestamp;pressure;altitude;pressure_sealevel;temperature;humidity
43119;BME280;28729;49.838;8.650;2023-05-23T00:00:29;99590.91;;;17.21;100.00
43119;BME280;28729;49.838;8.650;2023-05-23T00:04:34;99583.22;;;17.13;100.00
43119;BME280;28729;49.838;8.650;2023-05-23T00:08:50;99590.59;;;17.04;100.00
43119;BME280;28729;49.838;8.650;2023-05-23T00:12:52;99587.63;;;16.95;100.00
43119;BME280;28729;49.838;8.650;2023-05-23T00:16:53;99589.72;;;16.84;100.00
43119;BME280;28729;49.838;8.650;2023-05-23T00:20:55;99592.03;;;16.77;100.00
43119;BME280;28729;49.838;8.650;2023-05-23T00:24:57;99593.19;;;16.71;100.00
43119;BME280;28729;49.838;8.650;2023-05-23T00:29:02;99605.50;;;16.65;100.00
43119;BME280;28729;49.838;8.650;2023-05-23T00:33:08;99600.28;;;16.58;100.00
43119;BME280;28729;49.838;8.650;2023-05-23T00:37:10;99596.72;;;16.53;100.00
43119;BME280;28729;49.838;8.650;2023-05-23T00:41:12;99588.44;;;16.48;100.00
43119;BME280;28729;49.838;8.650;2023-05-23T00:45:14;99595.44;;;16.45;100.00
43119;BME280;28729;49.838;8.650;2023-05-23T00:49:17;99587.13;;;16.40;100.00
43119;BME280;28729;49.838;8.650;2023-05-23T00:53:23;99596.34;;;16.35;100.00
43119;BME280;28729;49.838;8.650;2023-05-23T00:57:25;99600.59;;;16.28;100.00
43119;BME280;28729;49.838;8.650;2023-05-23T01:01:26;99605.38;;;16.22;100.00
43119;BME280;28729;49.838;8.650;2023-05-23T01:05:29;99607.94;;;16.18;100.00
43119;BME280;28729;49.838;8.650;2023-05-23T01:09:31;99613.81;;;16.12;100.00
43119;BME280;28729;49.838;8.650;2023-05-23T01:13:47;99612.72;;;16.08;100.00
43119;BME280;28729;49.838;8.650;2023-05-23T01:18:09;99611.38;;;16.05;100.00
43119;BME280;28729;49.838;8.650;2023-05-23T01:22:20;99618.31;;;16.03;100.00
43119;BME280;28729;49.838;8.650;2023-05-23T01:26:32;99610.56;;;16.00;100.00
43119;BME280;28729;49.838;8.650;2023-05-23T01:30:43;99620.63;;;15.95;100.00
43119;BME280;28729;49.838;8.650;2023-05-23T01:34:46;99629.00;;;15.90;100.00
43119;BME280;28729;49.838;8.650;2023-05-23T01:38:48;99627.91;;;15.86;100.00
43119;BME280;28729;49.838;8.650;2023-05-23T01:42:52;99622.41;;;15.81;100.00
43119;BME280;28729;49.838;8.650;2023-05-23T01:46:56;99632.97;;;15.79;100.00
43119;BME280;28729;49.838;8.650;2023-05-23T01:50:58;99630.75;;;15.76;100.00
43119;BME280;28729;49.838;8.650;2023-05-23T01:55:00;99631.63;;;15.77;100.00
43119;BME280;28729;49.838;8.650;2023-05-23T01:59:03;99636.03;;;15.78;100.00
43119;BME280;28729;49.838;8.650;2023-05-23T02:03:05;99638.25;;;15.76;100.00
43119;BME280;28729;49.838;8.650;2023-05-23T02:07:07;99626.09;;;15.71;100.00
43119;BME280;28729;49.838;8.650;2023-05-23T02:11:09;99625.84;;;15.68;100.00
43119;BME280;28729;49.838;8.650;2023-05-23T02:15:14;99633.84;;;15.64;100.00
43119;BME280;28729;49.838;8.650;2023-05-23T02:19:17;99641.13;;;15.60;100.00
43119;BME280;28729;49.838;8.650;2023-05-23T02:23:20;99642.50;;;15.58;100.00
43119;BME280;28729;49.838;8.650;2023-05-23T02:27:22;99648.91;;;15.58;100.00
43119;BME280;28729;49.838;8.650;2023-05-23T02:31:23;99652.25;;;15.55;100.00
43119;BME280;28729;49.838;8.650;2023-05-23T02:35:25;99657.56;;;15.52;100.00
43119;BME280;28729;49.838;8.650;2023-05-23T02:39:27;99651.75;;;15.48;100.00
43119;BME280;28729;49.838;8.650;2023-05-23T02:43:29;99665.38;;;15.44;100.00
43119;BME280;28729;49.838;8.650;2023-05-23T02:47:32;99673.16;;;15.42;100.00
43119;BME280;28729;49.838;8.650;2023-05-23T02:51:34;99680.34;;;15.48;100.00
43119;BME280;28729;49.838;8.650;2023-05-23T02:55:36;99676.16;;;15.56;100.00
43119;BME280;28729;49.838;8.650;2023-05-23T02:59:39;99683.03;;;15.64;100.00
43119;BME280;28729;49.838;8.650;2023-05-23T03:03:41;99683.84;;;15.75;100.00
43119;BME280;28729;49.838;8.650;2023-05-23T03:07:43;99687.44;;;15.80;100.00
43119;BME280;28729;49.838;8.650;2023-05-23T03:11:45;99690.69;;;15.87;100.00
43119;BME280;28729;49.838;8.650;2023-05-23T03:15:47;99690.69;;;15.92;100.00
43119;BME280;28729;49.838;8.650;2023-05-23T03:19:49;99695.69;;;15.90;100.00
43119;BME280;28729;49.838;8.650;2023-05-23T03:23:52;99691.25;;;15.89;100.00
43119;BME280;28729;49.838;8.650;2023-05-23T03:27:54;99699.59;;;15.89;100.00
43119;BME280;28729;49.838;8.650;2023-05-23T03:31:56;99707.91;;;15.94;100.00
43119;BME280;28729;49.838;8.650;2023-05-23T03:35:59;99702.59;;;15.98;100.00
43119;BME280;28729;49.838;8.650;2023-05-23T03:40:02;99705.06;;;16.00;100.00
43119;BME280;28729;49.838;8.650;2023-05-23T03:44:05;99705.03;;;16.05;100.00
43119;BME280;28729;49.838;8.650;2023-05-23T03:48:07;99705.84;;;16.05;100.00
43119;BME280;28729;49.838;8.650;2023-05-23T03:52:10;99716.16;;;16.05;100.00
43119;BME280;28729;49.838;8.650;2023-05-23T03:56:12;99699.44;;;16.10;100.00
43119;BME280;28729;49.838;8.650;2023-05-23T04:00:14;99712.22;;;16.11;100.00
43119;BME280;28729;49.838;8.650;2023-05-23T04:04:17;99716.66;;;16.12;100.00
43119;BME280;28729;49.838;8.650;2023-05-23T04:08:23;99718.84;;;16.15;100.00
43119;BME280;28729;49.838;8.650;2023-05-23T04:12:25;99741.66;;;16.12;100.00
43119;BME280;28729;49.838;8.650;2023-05-23T04:16:28;99744.44;;;16.12;100.00
43119;BME280;28729;49.838;8.650;2023-05-23T04:20:34;99751.13;;;16.11;100.00
43119;BME280;28729;49.838;8.650;2023-05-23T04:24:36;99759.56;;;16.01;100.00
43119;BME280;28729;49.838;8.650;2023-05-23T04:28:38;99752.38;;;15.94;100.00
43119;BME280;28729;49.838;8.650;2023-05-23T04:32:41;99757.44;;;15.77;100.00
43119;BME280;28729;49.838;8.650;2023-05-23T04:36:44;99761.34;;;15.66;100.00
43119;BME280;28729;49.838;8.650;2023-05-23T04:40:47;99759.72;;;15.60;100.00
43119;BME280;28729;49.838;8.650;2023-05-23T04:45:12;99755.31;;;15.54;100.00
43119;BME280;28729;49.838;8.650;2023-05-23T04:49:26;99778.63;;;15.53;100.00
43119;BME280;28729;49.838;8.650;2023-05-23T04:53:31;99768.03;;;15.65;100.00
43119;BME280;28729;49.838;8.650;2023-05-23T04:57:34;99782.47;;;15.77;100.00
43119;BME280;28729;49.838;8.650;2023-05-23T05:01:38;99776.44;;;16.09;100.00
43119;BME280;28729;49.838;8.650;2023-05-23T05:05:42;99785.00;;;16.18;100.00
43119;BME280;28729;49.838;8.650;2023-05-23T05:09:46;99794.72;;;16.21;100.00
43119;BME280;28729;49.838;8.650;2023-05-23T05:13:49;99796.13;;;16.18;100.00
43119;BME280;28729;49.838;8.650;2023-05-23T05:17:54;99809.75;;;16.20;100.00
43119;BME280;28729;49.838;8.650;2023-05-23T05:21:59;99803.09;;;16.15;100.00
43119;BME280;28729;49.838;8.650;2023-05-23T05:26:05;99810.34;;;16.11;100.00
43119;BME280;28729;49.838;8.650;2023-05-23T05:30:12;99805.06;;;16.10;100.00
43119;BME280;28729;49.838;8.650;2023-05-23T05:34:23;99813.34;;;16.20;100.00
43119;BME280;28729;49.838;8.650;2023-05-23T05:38:25;99803.09;;;16.15;100.00
43119;BME280;28729;49.838;8.650;2023-05-23T05:42:27;99815.09;;;16.06;100.00
43119;BME280;28729;49.838;8.650;2023-05-23T05:46:32;99830.69;;;16.02;100.00
43119;BME280;28729;49.838;8.650;2023-05-23T05:50:43;99836.75;;;16.09;100.00
43119;BME280;28729;49.838;8.650;2023-05-23T05:54:48;99836.38;;;16.26;100.00
43119;BME280;28729;49.838;8.650;2023-05-23T05:58:49;99843.88;;;16.30;100.00
43119;BME280;28729;49.838;8.650;2023-05-23T06:02:55;99846.56;;;16.46;100.00
43119;BME280;28729;49.838;8.650;2023-05-23T06:07:18;99850.88;;;16.62;100.00
43119;BME280;28729;49.838;8.650;2023-05-23T06:11:19;99849.16;;;16.71;100.00
43119;BME280;28729;49.838;8.650;2023-05-23T06:15:24;99854.94;;;16.85;100.00
43119;BME280;28729;49.838;8.650;2023-05-23T06:19:41;99855.72;;;16.91;100.00
43119;BME280;28729;49.838;8.650;2023-05-23T06:23:43;99864.56;;;16.98;100.00
43119;BME280;28729;49.838;8.650;2023-05-23T06:27:47;99858.41;;;17.01;100.00
43119;BME280;28729;49.838;8.650;2023-05-23T06:31:50;99860.50;;;17.19;100.00
43119;BME280;28729;49.838;8.650;2023-05-23T06:35:53;99865.53;;;17.17;100.00
43119;BME280;28729;49.838;8.650;2023-05-23T06:39:56;99859.75;;;17.08;100.00
43119;BME280;28729;49.838;8.650;2023-05-23T06:43:59;99867.78;;;17.10;100.00
43119;BME280;28729;49.838;8.650;2023-05-23T06:48:05;99872.75;;;17.18;99.92
43119;BME280;28729;49.838;8.650;2023-05-23T06:52:09;99871.19;;;17.36;97.56
43119;BME280;28729;49.838;8.650;2023-05-23T06:56:12;99872.88;;;17.37;100.00
43119;BME280;28729;49.838;8.650;2023-05-23T07:00:26;99877.59;;;17.37;99.90
43119;BME280;28729;49.838;8.650;2023-05-23T07:04:36;99873.97;;;17.36;97.80
43119;BME280;28729;49.838;8.650;2023-05-23T07:08:46;99874.97;;;17.16;97.13
43119;BME280;28729;49.838;8.650;2023-05-23T07:12:49;99884.81;;;17.08;99.68
43119;BME280;28729;49.838;8.650;2023-05-23T07:16:59;99885.63;;;17.09;99.01
43119;BME280;28729;49.838;8.650;2023-05-23T07:21:01;99890.63;;;17.12;98.57
43119;BME280;28729;49.838;8.650;2023-05-23T07:25:05;99889.41;;;17.23;98.75
43119;BME280;28729;49.838;8.650;2023-05-23T07:29:08;99898.22;;;17.36;97.91
43119;BME280;28729;49.838;8.650;2023-05-23T07:33:11;99902.25;;;17.48;95.44
43119;BME280;28729;49.838;8.650;2023-05-23T07:37:14;99895.69;;;17.63;93.05
43119;BME280;28729;49.838;8.650;2023-05-23T07:41:18;99900.84;;;17.80;92.39
43119;BME280;28729;49.838;8.650;2023-05-23T07:45:20;99893.69;;;17.98;92.45
43119;BME280;28729;49.838;8.650;2023-05-23T07:49:26;99884.91;;;18.10;91.32
43119;BME280;28729;49.838;8.650;2023-05-23T07:53:29;99880.47;;;18.28;90.93
43119;BME280;28729;49.838;8.650;2023-05-23T07:57:32;99866.09;;;18.58;90.68
43119;BME280;28729;49.838;8.650;2023-05-23T08:01:40;99883.53;;;18.88;87.12
43119;BME280;28729;49.838;8.650;2023-05-23T08:05:47;99883.75;;;19.10;78.72
43119;BME280;28729;49.838;8.650;2023-05-23T08:09:49;99891.22;;;18.96;82.00
43119;BME280;28729;49.838;8.650;2023-05-23T08:13:54;99897.44;;;18.93;82.58
43119;BME280;28729;49.838;8.650;2023-05-23T08:18:18;99896.59;;;18.93;82.18
43119;BME280;28729;49.838;8.650;2023-05-23T08:22:21;99900.56;;;19.05;81.43
43119;BME280;28729;49.838;8.650;2023-05-23T08:26:27;99894.88;;;19.29;79.03
43119;BME280;28729;49.838;8.650;2023-05-23T08:30:37;99901.00;;;19.12;81.44
43119;BME280;28729;49.838;8.650;2023-05-23T08:34:40;99902.50;;;19.24;80.27
43119;BME280;28729;49.838;8.650;2023-05-23T08:38:44;99903.31;;;19.57;81.12
43119;BME280;28729;49.838;8.650;2023-05-23T08:42:55;99895.94;;;19.94;81.56
43119;BME280;28729;49.838;8.650;2023-05-23T08:47:02;99892.72;;;19.87;75.90
43119;BME280;28729;49.838;8.650;2023-05-23T08:51:25;99897.69;;;19.90;75.59
43119;BME280;28729;49.838;8.650;2023-05-23T08:55:33;99913.63;;;19.89;76.82
43119;BME280;28729;49.838;8.650;2023-05-23T08:59:37;99914.88;;;19.83;75.51
43119;BME280;28729;49.838;8.650;2023-05-23T09:03:40;99912.31;;;20.00;75.48
43119;BME280;28729;49.838;8.650;2023-05-23T09:07:54;99914.34;;;20.50;74.84
43119;BME280;28729;49.838;8.650;2023-05-23T09:11:59;99909.59;;;20.64;74.16
43119;BME280;28729;49.838;8.650;2023-05-23T09:16:07;99912.00;;;21.16;73.75
43119;BME280;28729;49.838;8.650;2023-05-23T09:20:16;99907.75;;;21.41;69.96
43119;BME280;28729;49.838;8.650;2023-05-23T09:24:35;99918.63;;;21.20;70.27
43119;BME280;28729;49.838;8.650;2023-05-23T09:28:42;99915.25;;;21.09;71.50
43119;BME280;28729;49.838;8.650;2023-05-23T09:32:59;99918.19;;;21.04;69.18
43119;BME280;28729;49.838;8.650;2023-05-23T09:37:07;99917.78;;;20.97;71.23
43119;BME280;28729;49.838;8.650;2023-05-23T09:41:11;99906.78;;;21.01;70.25
43119;BME280;28729;49.838;8.650;2023-05-23T09:45:15;99911.94;;;21.07;69.15
43119;BME280;28729;49.838;8.650;2023-05-23T09:49:19;99917.09;;;21.14;66.48
43119;BME280;28729;49.838;8.650;2023-05-23T09:53:24;99907.25;;;20.80;69.34
43119;BME280;28729;49.838;8.650;2023-05-23T09:57:27;99914.25;;;20.41;72.61
43119;BME280;28729;49.838;8.650;2023-05-23T10:01:30;99908.03;;;19.89;72.68
43119;BME280;28729;49.838;8.650;2023-05-23T10:05:45;99919.63;;;19.69;75.75
43119;BME280;28729;49.838;8.650;2023-05-23T10:09:59;99926.91;;;19.51;74.66
43119;BME280;28729;49.838;8.650;2023-05-23T10:14:06;99925.78;;;19.19;76.88
43119;BME280;28729;49.838;8.650;2023-05-23T10:18:20;99932.97;;;19.39;77.28
43119;BME280;28729;49.838;8.650;2023-05-23T10:22:25;99929.28;;;19.44;76.54
43119;BME280;28729;49.838;8.650;2023-05-23T10:26:30;99938.16;;;19.65;75.83
43119;BME280;28729;49.838;8.650;2023-05-23T10:30:36;99946.16;;;19.85;75.00
43119;BME280;28729;49.838;8.650;2023-05-23T10:34:53;99935.41;;;20.06;72.61
43119;BME280;28729;49.838;8.650;2023-05-23T10:39:07;99936.66;;;20.27;72.80
43119;BME280;28729;49.838;8.650;2023-05-23T10:43:24;99934.19;;;20.54;71.46
43119;BME280;28729;49.838;8.650;2023-05-23T10:47:29;99932.22;;;20.90;68.69
43119;BME280;28729;49.838;8.650;2023-05-23T10:51:37;99928.22;;;21.05;68.89
43119;BME280;28729;49.838;8.650;2023-05-23T10:55:40;99929.34;;;21.41;67.91
43119;BME280;28729;49.838;8.650;2023-05-23T10:59:44;99941.41;;;21.05;68.57
43119;BME280;28729;49.838;8.650;2023-05-23T11:08:12;99936.94;;;19.85;71.81
43119;BME280;28729;49.838;8.650;2023-05-23T11:12:36;99937.59;;;20.09;72.21
43119;BME280;28729;49.838;8.650;2023-05-23T11:16:41;99945.78;;;20.47;71.13
43119;BME280;28729;49.838;8.650;2023-05-23T11:20:45;99945.75;;;20.75;69.70
43119;BME280;28729;49.838;8.650;2023-05-23T11:24:52;99944.59;;;21.34;65.87
43119;BME280;28729;49.838;8.650;2023-05-23T11:28:56;99942.59;;;21.49;67.28
43119;BME280;28729;49.838;8.650;2023-05-23T11:33:00;99948.03;;;21.76;65.06
43119;BME280;28729;49.838;8.650;2023-05-23T11:37:08;99944.09;;;22.57;63.01
43119;BME280;28729;49.838;8.650;2023-05-23T11:41:11;99944.38;;;23.22;58.29
43119;BME280;28729;49.838;8.650;2023-05-23T11:45:13;99946.19;;;23.26;57.24
43119;BME280;28729;49.838;8.650;2023-05-23T11:49:15;99941.06;;;23.11;55.74
43119;BME280;28729;49.838;8.650;2023-05-23T11:53:19;99942.81;;;22.81;59.18
43119;BME280;28729;49.838;8.650;2023-05-23T11:57:23;99942.94;;;22.49;58.57
43119;BME280;28729;49.838;8.650;2023-05-23T12:01:27;99934.97;;;22.34;58.60
43119;BME280;28729;49.838;8.650;2023-05-23T12:05:33;99938.91;;;22.33;58.82
43119;BME280;28729;49.838;8.650;2023-05-23T12:09:43;99940.19;;;22.84;59.19
43119;BME280;28729;49.838;8.650;2023-05-23T12:13:46;99932.59;;;23.72;56.95
43119;BME280;28729;49.838;8.650;2023-05-23T12:17:48;99932.94;;;24.97;53.86
43119;BME280;28729;49.838;8.650;2023-05-23T12:21:53;99938.16;;;25.50;48.51
43119;BME280;28729;49.838;8.650;2023-05-23T12:25:55;99948.00;;;26.22;45.40
43119;BME280;28729;49.838;8.650;2023-05-23T12:34:07;99947.00;;;25.94;45.97
43119;BME280;28729;49.838;8.650;2023-05-23T12:38:15;99948.47;;;25.45;48.08
43119;BME280;28729;49.838;8.650;2023-05-23T12:42:20;99946.50;;;24.53;49.04
43119;BME280;28729;49.838;8.650;2023-05-23T12:46:28;99961.38;;;23.34;53.09
43119;BME280;28729;49.838;8.650;2023-05-23T12:50:30;99962.66;;;22.75;55.52
43119;BME280;28729;49.838;8.650;2023-05-23T12:54:32;99959.78;;;22.49;56.79
43119;BME280;28729;49.838;8.650;2023-05-23T12:58:37;99957.66;;;22.55;57.63
43119;BME280;28729;49.838;8.650;2023-05-23T13:02:39;99950.66;;;23.01;57.07
43119;BME280;28729;49.838;8.650;2023-05-23T13:06:41;99942.72;;;23.12;55.46
43119;BME280;28729;49.838;8.650;2023-05-23T13:10:44;99946.03;;;22.96;56.42
43119;BME280;28729;49.838;8.650;2023-05-23T13:14:47;99936.50;;;22.66;56.99
43119;BME280;28729;49.838;8.650;2023-05-23T13:18:49;99937.28;;;22.01;60.61
43119;BME280;28729;49.838;8.650;2023-05-23T13:22:51;99939.53;;;21.59;62.04
43119;BME280;28729;49.838;8.650;2023-05-23T13:26:54;99950.97;;;21.26;63.08
43119;BME280;28729;49.838;8.650;2023-05-23T13:30:56;99944.22;;;21.05;63.42
43119;BME280;28729;49.838;8.650;2023-05-23T13:35:01;99937.97;;;20.71;64.84
43119;BME280;28729;49.838;8.650;2023-05-23T13:39:03;99947.47;;;20.98;64.53
43119;BME280;28729;49.838;8.650;2023-05-23T13:43:07;99948.16;;;21.26;63.48
43119;BME280;28729;49.838;8.650;2023-05-23T13:47:11;99952.53;;;21.55;60.25
43119;BME280;28729;49.838;8.650;2023-05-23T13:51:14;99953.19;;;21.52;62.09
43119;BME280;28729;49.838;8.650;2023-05-23T13:55:16;99952.38;;;21.82;59.02
43119;BME280;28729;49.838;8.650;2023-05-23T13:59:19;99950.31;;;22.37;56.53
43119;BME280;28729;49.838;8.650;2023-05-23T14:03:21;99937.59;;;22.39;55.03
43119;BME280;28729;49.838;8.650;2023-05-23T14:07:25;99942.84;;;22.23;57.75
43119;BME280;28729;49.838;8.650;2023-05-23T14:11:27;99942.97;;;22.58;53.67
43119;BME280;28729;49.838;8.650;2023-05-23T14:15:29;99939.72;;;23.34;51.26
43119;BME280;28729;49.838;8.650;2023-05-23T14:19:35;99945.97;;;23.57;49.98
43119;BME280;28729;49.838;8.650;2023-05-23T14:23:38;99946.47;;;23.77;50.95
43119;BME280;28729;49.838;8.650;2023-05-23T14:27:39;99953.53;;;24.30;47.05
43119;BME280;28729;49.838;8.650;2023-05-23T14:31:44;99946.28;;;24.88;46.59
43119;BME280;28729;49.838;8.650;2023-05-23T14:35:46;99952.97;;;26.74;42.88
43119;BME280;28729;49.838;8.650;2023-05-23T14:39:49;99948.41;;;25.87;43.11
43119;BME280;28729;49.838;8.650;2023-05-23T14:43:52;99957.81;;;24.36;46.15
43119;BME280;28729;49.838;8.650;2023-05-23T14:47:56;99951.63;;;23.31;50.82
43119;BME280;28729;49.838;8.650;2023-05-23T14:51:58;99960.91;;;22.40;52.64
43119;BME280;28729;49.838;8.650;2023-05-23T14:56:00;99965.78;;;21.94;53.64
43119;BME280;28729;49.838;8.650;2023-05-23T15:00:02;99966.66;;;21.27;56.01
43119;BME280;28729;49.838;8.650;2023-05-23T15:04:08;99973.31;;;20.81;58.61
43119;BME280;28729;49.838;8.650;2023-05-23T15:08:11;99970.44;;;20.31;60.93
43119;BME280;28729;49.838;8.650;2023-05-23T15:12:13;99979.63;;;19.90;63.94
43119;BME280;28729;49.838;8.650;2023-05-23T15:16:15;99978.03;;;19.70;63.39
43119;BME280;28729;49.838;8.650;2023-05-23T15:20:22;99989.50;;;19.17;66.75
43119;BME280;28729;49.838;8.650;2023-05-23T15:24:23;99985.88;;;18.98;67.91
43119;BME280;28729;49.838;8.650;2023-05-23T15:28:28;99994.38;;;18.87;70.58
43119;BME280;28729;49.838;8.650;2023-05-23T15:32:31;99992.56;;;18.78;70.83
43119;BME280;28729;49.838;8.650;2023-05-23T15:36:33;99994.66;;;18.43;72.87
43119;BME280;28729;49.838;8.650;2023-05-23T15:40:36;99987.19;;;18.38;74.38
43119;BME280;28729;49.838;8.650;2023-05-23T15:44:39;99978.09;;;18.52;73.41
43119;BME280;28729;49.838;8.650;2023-05-23T15:48:41;99988.44;;;18.70;72.42
43119;BME280;28729;49.838;8.650;2023-05-23T15:52:43;99990.41;;;18.70;71.62
43119;BME280;28729;49.838;8.650;2023-05-23T15:56:46;99991.97;;;18.81;71.22
43119;BME280;28729;49.838;8.650;2023-05-23T16:00:52;100000.28;;;18.86;69.01
43119;BME280;28729;49.838;8.650;2023-05-23T16:04:54;99994.56;;;18.72;68.06
43119;BME280;28729;49.838;8.650;2023-05-23T16:08:56;99995.16;;;18.50;68.68
43119;BME280;28729;49.838;8.650;2023-05-23T16:12:57;99995.03;;;18.36;69.15
43119;BME280;28729;49.838;8.650;2023-05-23T16:17:00;99989.81;;;18.30;68.62
43119;BME280;28729;49.838;8.650;2023-05-23T16:21:04;99989.63;;;18.21;69.23
43119;BME280;28729;49.838;8.650;2023-05-23T16:25:09;99987.72;;;18.16;70.54
43119;BME280;28729;49.838;8.650;2023-05-23T16:29:11;99987.91;;;18.25;70.21
43119;BME280;28729;49.838;8.650;2023-05-23T16:33:16;99990.50;;;18.40;69.03
43119;BME280;28729;49.838;8.650;2023-05-23T16:37:17;99992.19;;;18.41;69.68
43119;BME280;28729;49.838;8.650;2023-05-23T16:41:23;99984.56;;;18.47;69.27
43119;BME280;28729;49.838;8.650;2023-05-23T16:45:29;99987.19;;;18.62;67.21
43119;BME280;28729;49.838;8.650;2023-05-23T16:49:32;99989.44;;;18.60;67.42
43119;BME280;28729;49.838;8.650;2023-05-23T16:53:34;99992.34;;;18.50;67.31
43119;BME280;28729;49.838;8.650;2023-05-23T16:57:36;99990.41;;;18.27;68.94
43119;BME280;28729;49.838;8.650;2023-05-23T17:01:38;99991.91;;;18.14;68.84
43119;BME280;28729;49.838;8.650;2023-05-23T17:05:42;99996.84;;;17.98;69.65
43119;BME280;28729;49.838;8.650;2023-05-23T17:09:44;100003.16;;;17.80;70.72
43119;BME280;28729;49.838;8.650;2023-05-23T17:13:46;99995.69;;;17.70;71.25
43119;BME280;28729;49.838;8.650;2023-05-23T17:17:49;100003.06;;;17.56;71.99
43119;BME280;28729;49.838;8.650;2023-05-23T17:21:53;100002.84;;;17.47;71.09
43119;BME280;28729;49.838;8.650;2023-05-23T17:25:55;100011.00;;;17.38;69.61
43119;BME280;28729;49.838;8.650;2023-05-23T17:29:57;100017.25;;;17.20;70.54
43119;BME280;28729;49.838;8.650;2023-05-23T17:34:01;100010.88;;;17.19;66.81
43119;BME280;28729;49.838;8.650;2023-05-23T17:38:06;100020.69;;;17.06;68.75
43119;BME280;28729;49.838;8.650;2023-05-23T17:42:08;100029.59;;;17.08;67.14
43119;BME280;28729;49.838;8.650;2023-05-23T17:46:10;100015.94;;;17.07;66.32
43119;BME280;28729;49.838;8.650;2023-05-23T17:50:12;100026.53;;;17.05;63.95
43119;BME280;28729;49.838;8.650;2023-05-23T17:54:14;100023.28;;;16.93;64.37
43119;BME280;28729;49.838;8.650;2023-05-23T17:58:16;100033.84;;;16.91;63.55
43119;BME280;28729;49.838;8.650;2023-05-23T18:02:19;100038.31;;;16.92;63.75
43119;BME280;28729;49.838;8.650;2023-05-23T18:06:22;100039.13;;;16.92;64.18
43119;BME280;28729;49.838;8.650;2023-05-23T18:10:24;100049.41;;;16.97;63.28
43119;BME280;28729;49.838;8.650;2023-05-23T18:14:25;100053.63;;;16.89;64.33
43119;BME280;28729;49.838;8.650;2023-05-23T18:18:29;100058.34;;;16.94;62.17
43119;BME280;28729;49.838;8.650;2023-05-23T18:22:32;100057.84;;;16.87;63.26
43119;BME280;28729;49.838;8.650;2023-05-23T18:26:34;100055.06;;;16.81;62.14
43119;BME280;28729;49.838;8.650;2023-05-23T18:30:40;100063.44;;;16.66;63.65
43119;BME280;28729;49.838;8.650;2023-05-23T18:34:42;100072.38;;;16.58;63.64
43119;BME280;28729;49.838;8.650;2023-05-23T18:38:45;100071.56;;;16.47;61.71
43119;BME280;28729;49.838;8.650;2023-05-23T18:42:48;100080.50;;;16.29;59.51
43119;BME280;28729;49.838;8.650;2023-05-23T18:46:50;100083.59;;;15.97;59.16
43119;BME280;28729;49.838;8.650;2023-05-23T18:50:52;100094.16;;;15.84;59.60
43119;BME280;28729;49.838;8.650;2023-05-23T18:54:57;100109.19;;;15.68;59.49
43119;BME280;28729;49.838;8.650;2023-05-23T18:58:59;100112.47;;;15.60;59.46
43119;BME280;28729;49.838;8.650;2023-05-23T19:03:01;100106.59;;;15.46;61.30
43119;BME280;28729;49.838;8.650;2023-05-23T19:07:03;100119.66;;;15.35;62.95
43119;BME280;28729;49.838;8.650;2023-05-23T19:11:05;100122.94;;;15.22;65.17
43119;BME280;28729;49.838;8.650;2023-05-23T19:15:09;100130.88;;;14.93;67.47
43119;BME280;28729;49.838;8.650;2023-05-23T19:19:11;100130.22;;;14.70;69.16
43119;BME280;28729;49.838;8.650;2023-05-23T19:23:13;100138.13;;;14.51;70.18
43119;BME280;28729;49.838;8.650;2023-05-23T19:27:15;100142.72;;;14.35;71.43
43119;BME280;28729;49.838;8.650;2023-05-23T19:31:19;100146.47;;;14.14;72.66
43119;BME280;28729;49.838;8.650;2023-05-23T19:35:20;100153.28;;;14.01;74.00
43119;BME280;28729;49.838;8.650;2023-05-23T19:39:25;100151.25;;;13.91;75.24
43119;BME280;28729;49.838;8.650;2023-05-23T19:43:27;100152.28;;;13.80;76.44
43119;BME280;28729;49.838;8.650;2023-05-23T19:47:30;100161.88;;;13.73;75.95
43119;BME280;28729;49.838;8.650;2023-05-23T19:51:33;100156.78;;;13.59;77.35
43119;BME280;28729;49.838;8.650;2023-05-23T19:55:35;100167.44;;;13.45;79.12
43119;BME280;28729;49.838;8.650;2023-05-23T19:59:37;100170.03;;;13.30;79.66
43119;BME280;28729;49.838;8.650;2023-05-23T20:03:38;100168.44;;;13.17;81.73
43119;BME280;28729;49.838;8.650;2023-05-23T20:07:40;100172.19;;;13.06;82.59
43119;BME280;28729;49.838;8.650;2023-05-23T20:11:43;100181.19;;;12.96;82.95
43119;BME280;28729;49.838;8.650;2023-05-23T20:15:45;100181.91;;;12.87;84.21
43119;BME280;28729;49.838;8.650;2023-05-23T20:19:47;100187.03;;;12.78;84.41
43119;BME280;28729;49.838;8.650;2023-05-23T20:23:49;100188.81;;;12.67;85.80
43119;BME280;28729;49.838;8.650;2023-05-23T20:27:51;100183.97;;;12.58;87.03
43119;BME280;28729;49.838;8.650;2023-05-23T20:31:54;100188.53;;;12.47;87.90
43119;BME280;28729;49.838;8.650;2023-05-23T20:35:57;100191.94;;;12.37;88.74
43119;BME280;28729;49.838;8.650;2023-05-23T20:40:00;100189.88;;;12.27;89.77
43119;BME280;28729;49.838;8.650;2023-05-23T20:44:02;100183.69;;;12.20;89.57
43119;BME280;28729;49.838;8.650;2023-05-23T20:48:05;100187.19;;;12.16;90.49
43119;BME280;28729;49.838;8.650;2023-05-23T20:52:07;100198.41;;;12.09;91.36
43119;BME280;28729;49.838;8.650;2023-05-23T20:56:10;100196.47;;;12.09;91.85
43119;BME280;28729;49.838;8.650;2023-05-23T21:00:12;100188.78;;;12.12;91.38
43119;BME280;28729;49.838;8.650;2023-05-23T21:04:14;100196.81;;;12.13;91.69
43119;BME280;28729;49.838;8.650;2023-05-23T21:08:19;100194.03;;;12.13;92.14
43119;BME280;28729;49.838;8.650;2023-05-23T21:12:22;100191.56;;;12.12;94.23
43119;BME280;28729;49.838;8.650;2023-05-23T21:16:25;100195.06;;;12.07;94.59
43119;BME280;28729;49.838;8.650;2023-05-23T21:20:27;100205.66;;;11.98;93.31
43119;BME280;28729;49.838;8.650;2023-05-23T21:24:29;100207.88;;;11.96;93.10
43119;BME280;28729;49.838;8.650;2023-05-23T21:28:31;100221.06;;;11.94;93.79
43119;BME280;28729;49.838;8.650;2023-05-23T21:32:34;100215.22;;;11.91;93.87